Time;durP1;ratioP1;P1;durP2;ratioP2;P2;SDS_P1;SDS_P2;PMS_P1;PMS_P2;Temp;Humidity;BMP_temperature;BMP_pressure;BME280_temperature;BME280_humidity;BME280_pressure;Samples;Min_cycle;Max_cycle;Signal;HPM_P1;HPM_P2
2020/12/28 00:01:40;;;;;;;0.38;0.32;;;;;;;2.69;93.86;96366.06;5074353;28;20135;-75
2020/12/28 00:04:06;;;;;;;0.60;0.60;;;;;;;2.71;93.89;96366.75;5065760;28;20118;-73
2020/12/28 00:06:32;;;;;;;0.40;0.40;;;;;;;2.68;93.90;96361.78;5065846;28;20398;-75
2020/12/28 00:08:58;;;;;;;0.40;0.40;;;;;;;2.69;93.68;96356.38;5063343;28;20049;-75
2020/12/28 00:11:26;;;;;;;0.40;0.40;;;;;;;2.68;93.97;96364.41;5065562;28;20059;-74
2020/12/28 00:13:52;;;;;;;0.55;0.47;;;;;;;2.58;94.10;96354.69;5054409;28;20082;-74
2020/12/28 00:16:18;;;;;;;0.40;0.40;;;;;;;2.76;93.88;96375.06;5076239;28;20391;-74
2020/12/28 00:18:44;;;;;;;0.35;0.35;;;;;;;2.72;93.94;96368.41;5075227;28;20052;-74
2020/12/28 00:21:10;;;;;;;1.02;0.60;;;;;;;2.70;94.04;96376.47;5072206;28;20105;-75
2020/12/28 00:23:36;;;;;;;0.40;0.40;;;;;;;2.71;94.59;96374.66;5073071;28;20048;-74
2020/12/28 00:26:03;;;;;;;0.57;0.47;;;;;;;2.71;94.05;96379.91;5056384;28;20103;-74
2020/12/28 00:28:29;;;;;;;0.50;0.50;;;;;;;2.65;94.78;96372.56;5040952;28;20052;-74
2020/12/28 00:30:55;;;;;;;0.50;0.50;;;;;;;2.71;94.64;96380.75;5075644;28;20048;-75
2020/12/28 00:33:21;;;;;;;0.50;0.50;;;;;;;2.77;94.35;96378.53;5075829;28;20049;-74
2020/12/28 00:35:47;;;;;;;0.57;0.50;;;;;;;2.73;94.33;96380.63;5075967;28;20433;-73
2020/12/28 00:38:13;;;;;;;0.43;0.43;;;;;;;2.69;94.22;96385.34;5075837;28;20052;-74
2020/12/28 00:40:39;;;;;;;1.50;0.43;;;;;;;2.77;94.57;96384.63;5075474;28;20271;-74
2020/12/28 00:43:06;;;;;;;0.70;0.35;;;;;;;2.75;94.12;96378.69;5074633;28;20052;-74
2020/12/28 00:45:32;;;;;;;0.70;0.40;;;;;;;2.71;95.23;96383.38;5074918;28;20059;-74
2020/12/28 00:47:58;;;;;;;1.05;0.30;;;;;;;2.72;94.36;96382.41;5075880;28;20049;-75
2020/12/28 00:50:24;;;;;;;0.40;0.40;;;;;;;2.68;94.41;96373.13;5074909;28;20048;-75
2020/12/28 00:52:51;;;;;;;0.80;0.30;;;;;;;2.68;95.11;96380.19;5075516;28;20084;-74
2020/12/28 00:55:17;;;;;;;0.40;0.40;;;;;;;2.65;94.46;96373.41;5075538;28;20121;-75
2020/12/28 00:57:44;;;;;;;0.30;0.30;;;;;;;2.63;94.66;96374.50;5075470;28;20055;-75
2020/12/28 01:00:10;;;;;;;0.40;0.40;;;;;;;2.67;95.02;96370.66;5057902;28;20082;-74
2020/12/28 01:02:36;;;;;;;0.30;0.30;;;;;;;2.62;94.42;96375.47;5058016;28;20052;-73
2020/12/28 01:05:02;;;;;;;0.43;0.40;;;;;;;2.65;95.04;96380.47;5074348;28;20056;-74
2020/12/28 01:07:28;;;;;;;0.40;0.40;;;;;;;2.65;95.09;96389.19;5075559;28;20086;-75
2020/12/28 01:09:54;;;;;;;0.30;0.30;;;;;;;2.69;95.07;96387.13;5075547;28;20045;-75
2020/12/28 01:12:21;;;;;;;0.40;0.40;;;;;;;2.73;94.64;96385.91;5075219;28;20401;-75
2020/12/28 01:14:47;;;;;;;0.35;0.35;;;;;;;2.70;94.05;96386.16;5075304;28;20523;-75
2020/12/28 01:17:13;;;;;;;0.90;0.38;;;;;;;2.63;94.31;96385.03;5075082;28;20052;-74
2020/12/28 01:19:39;;;;;;;0.47;0.40;;;;;;;2.65;94.21;96399.72;5075160;28;20381;-75
2020/12/28 01:22:05;;;;;;;0.40;0.40;;;;;;;2.59;94.90;96384.50;5074392;28;20384;-75
2020/12/28 01:24:32;;;;;;;1.13;1.02;;;;;;;2.67;93.50;96396.97;5064718;28;20110;-74
2020/12/28 01:26:58;;;;;;;0.88;0.40;;;;;;;2.65;94.58;96396.25;5037505;28;20052;-75
2020/12/28 01:29:24;;;;;;;0.43;0.43;;;;;;;2.66;94.32;96397.94;5054854;28;20045;-75
2020/12/28 01:31:50;;;;;;;0.57;0.50;;;;;;;2.55;94.93;96370.75;5054947;28;20057;-75
2020/12/28 01:34:16;;;;;;;0.50;0.38;;;;;;;2.57;94.86;96370.63;5054101;28;20124;-74
2020/12/28 01:36:42;;;;;;;0.70;0.50;;;;;;;2.66;95.08;96398.75;5037380;28;20080;-74
2020/12/28 01:39:08;;;;;;;0.32;0.32;;;;;;;2.63;95.24;96404.31;5054651;28;20052;-74
2020/12/28 01:41:35;;;;;;;0.75;0.47;;;;;;;2.63;94.73;96403.47;5055040;28;20053;-75
2020/12/28 01:44:01;;;;;;;0.55;0.55;;;;;;;2.61;95.30;96400.97;5053988;28;20056;-75
2020/12/28 01:46:28;;;;;;;0.60;0.50;;;;;;;2.58;95.36;96394.16;5054995;28;20060;-75
2020/12/28 01:48:54;;;;;;;0.50;0.50;;;;;;;2.66;95.04;96416.38;5054689;28;20346;-75
2020/12/28 01:51:20;;;;;;;0.80;0.50;;;;;;;2.63;95.38;96422.75;5054714;28;20817;-76
2020/12/28 01:53:47;;;;;;;0.57;0.57;;;;;;;2.66;94.98;96417.19;5039369;28;20053;-74
2020/12/28 01:56:16;;;;;;;0.57;0.55;;;;;;;2.60;95.19;96407.22;5059159;28;20118;-75
2020/12/28 01:58:42;;;;;;;0.40;0.40;;;;;;;2.65;94.88;96420.81;5041264;28;20332;-75
2020/12/28 02:01:09;;;;;;;0.40;0.40;;;;;;;2.54;94.36;96413.00;5041329;28;20057;-75
2020/12/28 02:03:36;;;;;;;0.85;0.40;;;;;;;2.60;94.67;96417.75;5058849;28;20049;-74
2020/12/28 02:06:03;;;;;;;0.30;0.30;;;;;;;2.54;95.33;96424.38;5041142;28;20060;-75
2020/12/28 02:08:29;;;;;;;0.40;0.40;;;;;;;2.47;94.94;96422.41;5058965;28;20057;-74
2020/12/28 02:10:55;;;;;;;0.30;0.30;;;;;;;2.41;95.06;96416.72;5041166;28;20060;-74
2020/12/28 02:13:22;;;;;;;0.30;0.30;;;;;;;2.36;94.94;96408.44;5058757;28;20053;-74
2020/12/28 02:15:48;;;;;;;0.40;0.40;;;;;;;2.41;96.28;96419.34;5058550;28;20148;-75
2020/12/28 02:18:19;;;;;;;0.43;0.40;;;;;;;2.40;96.17;96420.31;5058758;28;20055;-75
2020/12/28 02:20:48;;;;;;;0.40;0.40;;;;;;;2.42;95.73;96413.16;5058809;28;20053;-74
2020/12/28 02:23:15;;;;;;;1.35;0.40;;;;;;;2.45;96.20;96414.66;5058640;28;20049;-74
2020/12/28 02:25:41;;;;;;;0.40;0.35;;;;;;;2.41;95.49;96408.81;5038530;28;20053;-74
2020/12/28 02:28:07;;;;;;;0.30;0.30;;;;;;;2.41;96.18;96408.81;5038742;28;20111;-74
2020/12/28 02:30:35;;;;;;;2.25;0.73;;;;;;;2.40;95.72;96414.25;5038329;28;20412;-74
2020/12/28 02:33:02;;;;;;;0.40;0.40;;;;;;;2.41;95.87;96408.00;5038721;28;20050;-74
2020/12/28 02:35:28;;;;;;;1.15;0.45;;;;;;;2.45;95.40;96414.66;5020669;28;20053;-74
2020/12/28 02:37:54;;;;;;;0.60;0.60;;;;;;;2.41;95.90;96413.28;5038414;28;20402;-76
2020/12/28 02:40:20;;;;;;;0.45;0.45;;;;;;;2.40;96.27;96409.00;5038297;28;20045;-74
2020/12/28 02:42:46;;;;;;;2.22;0.73;;;;;;;2.46;96.19;96413.72;5038081;28;20427;-75
2020/12/28 02:45:12;;;;;;;1.15;0.80;;;;;;;2.49;96.34;96421.31;5020513;28;20060;-74
2020/12/28 02:47:39;;;;;;;0.80;0.80;;;;;;;2.53;95.79;96414.00;5053414;28;20359;-74
2020/12/28 02:50:05;;;;;;;0.82;0.73;;;;;;;2.63;95.70;96408.75;5037883;28;20042;-74
2020/12/28 02:52:31;;;;;;;1.38;0.73;;;;;;;2.68;95.63;96417.06;5038297;28;20057;-74
2020/12/28 02:54:57;;;;;;;0.70;0.70;;;;;;;2.63;96.04;96424.53;5037980;28;20091;-75
2020/12/28 02:57:23;;;;;;;0.75;0.70;;;;;;;2.61;95.15;96414.13;5053561;28;20049;-75
2020/12/28 02:59:52;;;;;;;1.35;0.70;;;;;;;2.66;95.38;96422.47;5037631;28;20095;-76
2020/12/28 03:02:18;;;;;;;0.90;0.90;;;;;;;2.67;95.79;96418.84;5037805;28;20056;-76
2020/12/28 03:04:44;;;;;;;2.35;0.90;;;;;;;2.64;95.34;96424.41;5037823;28;20060;-75
2020/12/28 03:07:11;;;;;;;3.35;0.88;;;;;;;2.55;94.37;96410.25;5053435;28;20419;-76
2020/12/28 03:09:37;;;;;;;2.15;1.05;;;;;;;2.64;95.51;96432.31;5037921;28;20049;-76
2020/12/28 03:12:03;;;;;;;1.08;0.95;;;;;;;2.66;95.08;96443.53;5037680;28;20200;-75
2020/12/28 03:14:29;;;;;;;0.65;0.65;;;;;;;2.63;94.64;96433.28;5020340;28;20053;-76
2020/12/28 03:16:55;;;;;;;2.38;0.85;;;;;;;2.69;94.83;96440.63;5037279;28;20058;-74
2020/12/28 03:19:22;;;;;;;1.88;0.65;;;;;;;2.75;94.80;96446.31;5053072;28;20394;-75
2020/12/28 03:21:48;;;;;;;0.50;0.50;;;;;;;2.79;94.19;96453.78;5037358;28;20501;-74
2020/12/28 03:24:15;;;;;;;1.45;0.73;;;;;;;2.72;93.71;96450.03;5045402;28;20086;-74
2020/12/28 03:26:41;;;;;;;0.52;0.52;;;;;;;2.79;94.17;96455.59;5056555;28;20059;-74
2020/12/28 03:29:12;;;;;;;1.58;0.55;;;;;;;2.75;94.72;96449.78;5057205;28;20130;-74
2020/12/28 03:31:39;;;;;;;0.43;0.43;;;;;;;2.78;94.68;96453.94;5057061;28;20103;-75
2020/12/28 03:34:06;;;;;;;1.55;0.75;;;;;;;2.83;94.75;96459.63;5057169;28;20316;-74
2020/12/28 03:36:32;;;;;;;1.73;0.60;;;;;;;2.79;93.62;96458.22;5056917;28;20059;-74
2020/12/28 03:38:59;;;;;;;1.60;0.60;;;;;;;2.83;93.71;96451.75;5055981;28;20053;-75
2020/12/28 03:41:25;;;;;;;2.15;0.70;;;;;;;2.90;93.21;96444.09;5056851;28;20439;-74
2020/12/28 03:43:52;;;;;;;0.65;0.50;;;;;;;2.87;93.21;96434.66;5056970;28;20053;-75
2020/12/28 03:46:18;;;;;;;0.82;0.50;;;;;;;2.81;92.52;96424.69;5056734;28;20044;-74
2020/12/28 03:48:44;;;;;;;0.63;0.38;;;;;;;2.78;92.79;96431.06;5039643;28;20389;-74
2020/12/28 03:51:11;;;;;;;0.60;0.60;;;;;;;2.68;92.49;96435.50;5039225;28;20466;-74
2020/12/28 03:53:37;;;;;;;0.60;0.50;;;;;;;2.65;93.29;96431.34;5056791;28;20128;-74
2020/12/28 03:56:03;;;;;;;1.15;0.70;;;;;;;2.56;94.17;96432.97;5055617;28;20755;-74
2020/12/28 03:58:30;;;;;;;1.33;0.80;;;;;;;2.50;93.75;96433.50;5056958;28;20060;-74
2020/12/28 04:00:56;;;;;;;0.93;0.50;;;;;;;2.49;93.82;96437.13;5056373;28;20419;-74
2020/12/28 04:03:22;;;;;;;0.60;0.60;;;;;;;2.50;93.94;96437.97;5056777;28;20049;-74
2020/12/28 04:05:48;;;;;;;0.40;0.40;;;;;;;2.38;94.08;96424.91;5055330;28;20102;-74
2020/12/28 04:08:15;;;;;;;1.92;0.50;;;;;;;2.35;93.73;96425.19;5056461;28;20060;-74
2020/12/28 04:10:41;;;;;;;1.48;0.50;;;;;;;2.36;94.30;96433.91;5056363;28;20051;-75
2020/12/28 04:13:08;;;;;;;0.85;0.60;;;;;;;2.27;94.48;96420.59;5056445;28;20053;-74
2020/12/28 04:15:34;;;;;;;0.70;0.60;;;;;;;2.23;93.63;96408.66;5055744;28;20115;-74
2020/12/28 04:18:00;;;;;;;0.90;0.60;;;;;;;2.24;94.08;96422.66;5056584;28;20064;-73
2020/12/28 04:20:26;;;;;;;1.00;0.70;;;;;;;2.26;94.05;96424.19;5056358;28;20051;-74
2020/12/28 04:22:52;;;;;;;1.30;0.88;;;;;;;2.19;94.24;96423.06;5057829;28;20057;-74
2020/12/28 04:25:18;;;;;;;1.33;0.77;;;;;;;2.12;94.45;96419.31;5057170;28;20045;-74
2020/12/28 04:27:44;;;;;;;1.13;1.02;;;;;;;2.08;94.18;96412.63;5038784;28;20057;-74
2020/12/28 04:30:10;;;;;;;2.08;1.08;;;;;;;2.09;94.52;96424.81;5055011;28;20060;-74
2020/12/28 04:32:37;;;;;;;2.10;1.20;;;;;;;2.06;94.23;96425.09;5056468;28;20053;-74
2020/12/28 04:35:04;;;;;;;1.80;0.88;;;;;;;2.03;94.65;96427.00;5056865;28;20053;-74
2020/12/28 04:37:30;;;;;;;2.00;1.00;;;;;;;1.94;94.63;96419.91;5056496;28;20052;-75
2020/12/28 04:39:56;;;;;;;3.10;1.13;;;;;;;1.95;94.77;96416.31;5055914;28;20385;-74
2020/12/28 04:42:27;;;;;;;6.07;1.25;;;;;;;1.88;94.82;96420.44;5055959;28;20118;-74
2020/12/28 04:44:54;;;;;;;1.20;0.82;;;;;;;1.88;94.51;96423.91;5038257;28;20457;-74
2020/12/28 04:47:20;;;;;;;1.83;1.15;;;;;;;1.86;94.50;96419.75;5055655;28;20083;-74
2020/12/28 04:49:46;;;;;;;2.72;1.05;;;;;;;1.85;94.65;96420.72;5055629;28;20481;-75
2020/12/28 04:52:14;;;;;;;1.85;1.38;;;;;;;1.83;94.69;96417.38;5055851;28;20052;-74
2020/12/28 04:54:42;;;;;;;3.03;1.20;;;;;;;1.75;94.59;96416.22;5054572;28;20066;-75
2020/12/28 04:57:09;;;;;;;2.08;1.27;;;;;;;1.81;94.30;96421.94;5055511;28;20053;-74
2020/12/28 04:59:35;;;;;;;3.92;1.30;;;;;;;1.86;94.41;96419.75;5055723;28;20045;-74
2020/12/28 05:02:02;;;;;;;4.60;1.73;;;;;;;1.86;94.13;96431.09;5055616;28;20053;-74
2020/12/28 05:04:28;;;;;;;2.53;1.50;;;;;;;1.88;94.38;96417.81;5038009;28;20053;-75
2020/12/28 05:07:05;;;;;;;2.80;1.40;;;;;;;1.92;94.20;96424.47;5055485;28;20385;-74
2020/12/28 05:09:32;;;;;;;1.33;1.23;;;;;;;1.99;93.65;96404.56;5055551;28;20053;-74
2020/12/28 05:12:00;;;;;;;3.90;1.77;;;;;;;1.94;94.33;96404.13;5055518;28;20049;-74
2020/12/28 05:14:26;;;;;;;2.85;1.33;;;;;;;2.02;93.41;96400.84;5055246;28;20048;-73
2020/12/28 05:17:02;;;;;;;4.15;1.77;;;;;;;2.01;93.18;96392.13;5054094;28;20362;-74
2020/12/28 05:19:28;;;;;;;3.45;1.27;;;;;;;2.02;93.31;96387.69;5055484;28;20041;-74
2020/12/28 05:21:56;;;;;;;4.80;1.40;;;;;;;2.00;93.06;96385.19;5055167;28;20053;-74
2020/12/28 05:24:23;;;;;;;2.05;1.20;;;;;;;2.01;93.00;96389.50;5055303;28;20064;-74
2020/12/28 05:26:50;;;;;;;3.85;1.30;;;;;;;1.97;93.42;96390.72;5054804;28;20107;-74
2020/12/28 05:29:21;;;;;;;2.72;1.55;;;;;;;1.95;93.27;96383.94;5054651;28;20056;-74
2020/12/28 05:31:48;;;;;;;;;;;;;;;1.90;93.53;96392.19;5055402;28;20057;-75
2020/12/28 05:34:21;;;;;;;3.60;1.40;;;;;;;1.91;93.49;96388.63;5055026;28;19928;-74
2020/12/28 05:36:52;;;;;;;7.13;1.52;;;;;;;1.87;93.31;96395.13;5054883;28;20064;-74
2020/12/28 05:39:21;;;;;;;2.90;1.20;;;;;;;1.79;93.30;96392.31;5055059;28;20052;-75
2020/12/28 05:42:09;;;;;;;2.90;1.10;;;;;;;1.79;93.01;96392.31;5054746;28;20052;-75
2020/12/28 05:44:36;;;;;;;7.55;1.27;;;;;;;1.67;93.16;96387.13;5055185;28;20351;-75
2020/12/28 05:47:07;;;;;;;3.50;1.30;;;;;;;1.76;92.85;96398.66;5054979;28;20057;-75
2020/12/28 05:49:41;;;;;;;4.10;1.40;;;;;;;1.68;93.37;96388.81;5054762;28;20071;-75
2020/12/28 05:52:09;;;;;;;2.22;1.00;;;;;;;1.69;93.38;96392.28;5054759;28;20045;-75
2020/12/28 05:54:36;;;;;;;3.70;1.42;;;;;;;1.69;92.79;96397.53;5054724;28;20486;-74
2020/12/28 05:57:05;;;;;;;4.18;1.33;;;;;;;1.67;93.00;96402.91;5054849;28;20053;-75
2020/12/28 05:59:32;;;;;;;7.72;1.40;;;;;;;1.60;93.12;96397.34;5054614;28;20071;-75
2020/12/28 06:02:00;;;;;;;2.92;1.10;;;;;;;1.65;92.80;96414.50;5054689;28;20484;-75
2020/12/28 06:04:27;;;;;;;4.72;1.17;;;;;;;1.50;93.10;96393.84;5054761;28;20403;-75
2020/12/28 06:06:59;;;;;;;5.45;1.23;;;;;;;1.54;93.21;96416.28;5054523;28;20052;-75
2020/12/28 06:09:25;;;;;;;2.25;1.23;;;;;;;1.49;93.04;96416.63;5054824;28;20141;-75
2020/12/28 06:12:02;;;;;;;3.10;1.13;;;;;;;1.47;92.80;96409.88;5054773;28;20049;-75
2020/12/28 06:14:34;;;;;;;3.60;1.27;;;;;;;1.43;93.69;96414.56;5054840;28;20057;-75
2020/12/28 06:17:07;;;;;;;1.60;1.10;;;;;;;1.44;93.30;96423.25;5054442;28;20327;-75
2020/12/28 06:19:33;;;;;;;2.03;1.20;;;;;;;1.42;93.63;96433.88;5036975;28;20358;-75
2020/12/28 06:22:00;;;;;;;9.70;1.10;;;;;;;1.36;93.29;96439.66;5054359;28;20060;-75
2020/12/28 06:24:28;;;;;;;3.50;1.30;;;;;;;1.35;93.01;96433.59;5054360;28;20434;-75
2020/12/28 06:27:05;;;;;;;3.10;1.00;;;;;;;1.37;93.25;96435.25;5054417;28;20056;-75
2020/12/28 06:29:32;;;;;;;7.85;1.45;;;;;;;1.34;93.95;96441.59;5054726;28;20057;-75
2020/12/28 06:32:16;;;;;;;6.03;1.05;;;;;;;1.28;93.68;96436.84;5054703;28;20049;-74
2020/12/28 06:34:46;;;;;;;5.43;1.35;;;;;;;1.26;93.26;96438.78;5054572;28;20056;-74
2020/12/28 06:37:13;;;;;;;1.88;1.00;;;;;;;1.27;93.44;96429.94;5054267;28;20053;-74
2020/12/28 06:39:40;;;;;;;7.35;1.38;;;;;;;1.24;93.37;96438.06;5056204;28;20080;-74
2020/12/28 06:42:14;;;;;;;3.15;1.40;;;;;;;1.25;93.56;96443.19;5058222;28;20431;-74
2020/12/28 06:44:42;;;;;;;3.78;1.13;;;;;;;1.20;93.54;96445.38;5058486;28;20053;-74
2020/12/28 06:47:21;;;;;;;5.57;2.67;;;;;;;1.30;93.55;96458.59;5040448;28;20140;-74
2020/12/28 06:49:47;;;;;;;5.00;1.20;;;;;;;1.26;92.96;96455.38;5040444;28;20045;-74
2020/12/28 06:52:14;;;;;;;4.03;1.17;;;;;;;1.22;92.77;96449.50;5040677;28;20060;-74
2020/12/28 06:54:41;;;;;;;7.57;1.00;;;;;;;1.20;93.00;96461.94;5058058;28;20125;-74
2020/12/28 06:57:08;;;;;;;4.05;1.20;;;;;;;1.21;92.93;96454.91;5058112;28;20056;-74
2020/12/28 06:59:35;;;;;;;4.63;1.10;;;;;;;1.26;93.26;96449.28;5056746;28;20045;-75
2020/12/28 07:02:03;;;;;;;4.07;1.23;;;;;;;1.27;92.88;96450.94;5057750;28;20061;-74
2020/12/28 07:04:34;;;;;;;3.88;1.25;;;;;;;1.26;92.72;96449.28;5057912;28;20057;-74
2020/12/28 07:07:03;;;;;;;4.88;1.13;;;;;;;1.15;93.16;96442.28;5056737;28;20126;-74
2020/12/28 07:09:29;;;;;;;5.03;1.02;;;;;;;1.22;93.20;96448.69;5039958;28;20056;-75
2020/12/28 07:12:03;;;;;;;4.00;1.15;;;;;;;1.28;92.71;96457.84;5057580;28;20048;-75
2020/12/28 07:14:29;;;;;;;5.82;1.00;;;;;;;1.21;92.26;96447.84;5057428;28;20053;-74
2020/12/28 07:16:55;;;;;;;3.03;0.90;;;;;;;1.20;92.54;96453.25;5057362;28;20063;-74
2020/12/28 07:19:22;;;;;;;3.72;1.40;;;;;;;1.26;92.69;96454.53;5057571;28;20060;-75
2020/12/28 07:21:48;;;;;;;5.03;1.20;;;;;;;1.18;92.16;96448.13;5057443;28;20053;-76
2020/12/28 07:24:15;;;;;;;4.18;1.17;;;;;;;1.21;91.96;96466.25;5056056;28;20450;-74
2020/12/28 07:26:43;;;;;;;2.95;1.10;;;;;;;1.16;92.74;96460.56;5057341;28;20053;-75
2020/12/28 07:29:27;;;;;;;5.90;1.40;;;;;;;1.17;92.41;96458.75;5057149;28;20063;-75
2020/12/28 07:32:03;;;;;;;4.55;1.00;;;;;;;1.20;91.97;96450.63;5064931;28;20056;-74
2020/12/28 07:34:29;;;;;;;3.92;0.88;;;;;;;1.17;91.87;96446.47;5048597;28;20106;-74
2020/12/28 07:36:56;;;;;;;3.95;1.15;;;;;;;1.17;92.43;96450.88;5067113;28;20056;-75
2020/12/28 07:39:22;;;;;;;5.72;1.17;;;;;;;1.19;92.14;96456.81;5064709;28;20048;-73
2020/12/28 07:41:49;;;;;;;3.60;1.00;;;;;;;1.08;92.35;96436.69;5066652;28;20469;-81
2020/12/28 07:44:15;;;;;;;2.65;0.82;;;;;;;1.17;91.85;96456.13;5065322;28;20079;-77
2020/12/28 07:46:51;;;;;;;2.08;1.00;;;;;;;1.19;91.63;96454.19;5061879;28;20128;-78
2020/12/28 07:49:18;;;;;;;3.03;0.93;;;;;;;1.20;91.78;96455.88;5063671;28;20465;-75
2020/12/28 07:52:20;;;;;;;3.22;1.05;;;;;;;1.09;92.15;96446.22;5064814;28;20053;-75
2020/12/28 07:54:55;;;;;;;3.72;1.05;;;;;;;1.24;92.08;96457.28;5063017;28;20052;-78
2020/12/28 07:57:30;;;;;;;5.07;1.25;;;;;;;1.27;91.50;96466.69;5067183;28;20048;-76
2020/12/28 08:00:07;;;;;;;2.80;0.88;;;;;;;1.29;91.61;96470.88;5067821;28;20421;-75
2020/12/28 08:02:51;;;;;;;5.03;1.25;;;;;;;1.35;92.19;96472.16;5064268;28;20099;-73
2020/12/28 08:05:21;;;;;;;4.70;1.15;;;;;;;1.39;91.46;96468.31;5064903;28;20396;-75
2020/12/28 08:07:48;;;;;;;3.50;1.15;;;;;;;1.44;91.54;96471.41;5057788;28;20408;-73
2020/12/28 08:10:14;;;;;;;2.80;0.90;;;;;;;1.47;91.26;96478.19;5064294;28;20106;-75
2020/12/28 08:12:49;;;;;;;4.25;1.45;;;;;;;1.46;91.24;96474.72;5064205;28;20055;-74
2020/12/28 08:15:25;;;;;;;6.47;1.20;;;;;;;1.50;90.97;96477.94;5073006;28;20437;-72
2020/12/28 08:18:10;;;;;;;2.92;1.13;;;;;;;1.48;90.91;96469.34;5068946;28;20388;-76
2020/12/28 08:20:37;;;;;;;8.10;1.58;;;;;;;1.56;90.75;96473.94;5060531;28;20045;-75
2020/12/28 08:23:04;;;;;;;1.95;1.08;;;;;;;1.36;91.22;96442.28;5063853;28;20079;-73
2020/12/28 08:25:31;;;;;;;3.63;0.88;;;;;;;1.58;91.46;96466.78;5055129;28;20057;-73
2020/12/28 08:28:02;;;;;;;1.63;0.90;;;;;;;1.68;90.91;96475.56;5056540;28;20053;-75
2020/12/28 08:30:31;;;;;;;4.30;1.20;;;;;;;1.66;90.89;96480.13;5058753;28;20107;-76
2020/12/28 08:32:59;;;;;;;2.90;1.13;;;;;;;1.68;90.78;96472.91;5037626;28;20049;-75
2020/12/28 08:35:27;;;;;;;3.08;1.08;;;;;;;1.59;90.89;96466.63;5073531;28;20048;-79
2020/12/28 08:37:53;;;;;;;10.10;1.55;;;;;;;1.71;89.68;96472.69;5056874;28;20053;-78
2020/12/28 08:40:22;;;;;;;4.45;1.70;;;;;;;1.84;89.60;96479.50;5056538;28;20049;-77
2020/12/28 08:42:58;;;;;;;4.80;1.08;;;;;;;1.67;89.58;96458.13;5055910;28;20430;-80
2020/12/28 08:45:28;;;;;;;5.15;1.13;;;;;;;1.81;88.90;96479.78;5056366;28;20057;-78
2020/12/28 08:47:57;;;;;;;3.38;1.17;;;;;;;1.81;89.10;96470.09;5056751;28;20130;-79
2020/12/28 08:50:25;;;;;;;4.38;1.20;;;;;;;1.85;89.45;96475.94;5055792;28;20392;-80
2020/12/28 08:52:57;;;;;;;3.92;0.80;;;;;;;1.85;88.62;96471.50;5056102;28;20136;-79
2020/12/28 08:55:23;;;;;;;;;;;;;;;1.93;89.40;96473.47;5038875;28;20358;-81
2020/12/28 08:57:55;;;;;;;2.97;1.17;;;;;;;1.83;88.94;96462.06;5056466;28;20007;-80
2020/12/28 09:00:25;;;;;;;1.50;0.80;;;;;;;1.78;89.62;96451.13;5054514;28;20053;-81
2020/12/28 09:02:58;;;;;;;4.20;1.02;;;;;;;1.85;89.03;96445.19;5054895;28;20498;-80
2020/12/28 09:05:28;;;;;;;4.10;1.25;;;;;;;1.76;89.17;96438.09;5055492;28;20053;-81
2020/12/28 09:07:54;;;;;;;4.18;1.45;;;;;;;1.92;89.76;96456.03;5054583;28;20044;-77
2020/12/28 09:10:20;;;;;;;7.00;1.48;;;;;;;1.87;90.01;96455.59;5037132;28;20041;-78
2020/12/28 09:12:47;;;;;;;5.00;1.90;;;;;;;1.84;89.97;96442.69;5054970;28;20103;-80
2020/12/28 09:15:13;;;;;;;5.40;3.42;;;;;;;1.87;88.97;96445.06;5053638;28;20048;-79
2020/12/28 09:17:41;;;;;;;6.13;4.03;;;;;;;1.95;88.81;96460.22;5054731;28;20055;-80
2020/12/28 09:20:08;;;;;;;8.38;4.45;;;;;;;1.75;89.40;96434.63;5051418;28;20109;-80
2020/12/28 09:22:34;;;;;;;9.02;3.90;;;;;;;1.86;89.71;96461.81;5041574;28;20049;-78
2020/12/28 09:25:00;;;;;;;9.98;4.32;;;;;;;1.71;90.81;96441.13;5063009;28;20103;-79
2020/12/28 09:27:27;;;;;;;6.13;2.78;;;;;;;1.78;90.93;96451.13;5054061;28;20151;-79
2020/12/28 09:29:54;;;;;;;9.38;2.65;;;;;;;1.84;91.07;96472.47;5053976;28;20051;-79
2020/12/28 09:32:20;;;;;;;4.32;1.73;;;;;;;1.94;89.46;96469.03;5053361;28;20137;-76
2020/12/28 09:34:46;;;;;;;7.68;1.52;;;;;;;1.93;89.90;96462.97;5054604;28;20053;-76
2020/12/28 09:37:13;;;;;;;4.88;1.38;;;;;;;2.02;88.59;96461.34;5055241;28;20045;-77
2020/12/28 09:39:39;;;;;;;7.68;1.35;;;;;;;2.06;89.40;96467.19;5053877;28;20055;-76
2020/12/28 09:42:05;;;;;;;3.90;1.65;;;;;;;1.99;89.16;96462.44;5054575;28;20056;-80
2020/12/28 09:44:32;;;;;;;3.42;1.23;;;;;;;2.08;89.55;96459.97;5057967;28;20049;-73
2020/12/28 09:46:58;;;;;;;2.92;1.55;;;;;;;2.12;89.49;96479.81;5055513;28;20062;-72
2020/12/28 09:49:25;;;;;;;7.40;1.50;;;;;;;2.10;89.99;96473.81;5070799;28;20052;-77
2020/12/28 09:51:53;;;;;;;2.75;1.48;;;;;;;2.12;90.17;96480.63;5057432;28;20052;-75
2020/12/28 09:54:21;;;;;;;3.58;1.60;;;;;;;2.19;88.45;96464.31;5074932;28;20056;-76
2020/12/28 09:57:04;;;;;;;5.45;1.42;;;;;;;2.30;88.32;96457.13;5073926;28;20095;-76
2020/12/28 09:59:39;;;;;;;4.25;1.38;;;;;;;2.31;89.60;96456.16;5073007;28;20139;-77
2020/12/28 10:02:06;;;;;;;3.85;1.17;;;;;;;2.26;89.11;96444.38;5065324;28;20060;-77
2020/12/28 10:04:33;;;;;;;7.35;3.25;;;;;;;2.32;88.83;96435.97;5055119;28;20060;-79
2020/12/28 10:06:59;;;;;;;5.82;1.48;;;;;;;2.38;89.47;96435.44;5055135;28;20056;-78
2020/12/28 10:09:25;;;;;;;2.80;1.52;;;;;;;2.52;89.47;96443.91;5038331;28;20457;-77
2020/12/28 10:11:53;;;;;;;5.28;1.80;;;;;;;2.58;88.57;96446.81;5055844;28;20089;-76
2020/12/28 10:14:19;;;;;;;3.08;1.85;;;;;;;2.66;87.61;96437.44;5056690;28;20052;-81
2020/12/28 10:16:46;;;;;;;1.85;1.55;;;;;;;2.79;86.89;96445.88;5065648;28;20063;-81
2020/12/28 10:19:12;;;;;;;5.18;1.92;;;;;;;2.80;87.46;96438.81;5040752;28;20053;-76
2020/12/28 10:21:39;;;;;;;3.30;1.95;;;;;;;2.81;87.55;96424.69;5058660;28;20045;-79
2020/12/28 10:24:05;;;;;;;2.95;1.70;;;;;;;2.89;88.18;96431.91;5057311;28;20468;-78
2020/12/28 10:26:32;;;;;;;5.70;2.08;;;;;;;2.89;87.51;96422.19;5058245;28;20060;-78
2020/12/28 10:28:58;;;;;;;5.72;1.77;;;;;;;2.90;88.83;96420.41;5061341;28;20064;-77
2020/12/28 10:31:25;;;;;;;8.57;1.80;;;;;;;3.01;88.88;96422.06;5055200;28;20045;-78
2020/12/28 10:34:12;;;;;;;4.63;1.70;;;;;;;3.03;87.73;96423.59;5055762;28;20131;-79
2020/12/28 10:36:38;;;;;;;3.85;1.80;;;;;;;3.09;87.81;96427.47;5056359;28;20060;-78
2020/12/28 10:39:07;;;;;;;5.50;1.95;;;;;;;3.13;88.23;96420.97;5056795;28;20049;-82
2020/12/28 10:41:33;;;;;;;4.60;2.10;;;;;;;3.13;88.91;96418.31;5056366;28;20055;-78
2020/12/28 10:44:00;;;;;;;3.95;2.50;;;;;;;3.09;87.90;96399.31;5056335;28;20053;-78
2020/12/28 10:46:33;;;;;;;4.07;2.20;;;;;;;3.29;87.05;96423.03;5057968;28;20052;-77
2020/12/28 10:49:00;;;;;;;8.02;2.53;;;;;;;3.31;86.05;96434.25;5057939;28;20403;-75
2020/12/28 10:51:26;;;;;;;6.95;2.42;;;;;;;3.15;85.46;96405.84;5057884;28;20052;-80
2020/12/28 10:53:53;;;;;;;5.75;2.33;;;;;;;3.28;84.98;96416.09;5058393;28;20049;-76
2020/12/28 10:56:30;;;;;;;6.70;2.58;;;;;;;3.30;85.95;96431.75;5058178;28;20135;-78
2020/12/28 10:58:58;;;;;;;7.32;2.10;;;;;;;3.26;86.02;96425.94;5047286;28;20422;-78
2020/12/28 11:01:26;;;;;;;5.80;2.33;;;;;;;3.37;84.95;96431.06;5058413;28;20048;-78
2020/12/28 11:03:54;;;;;;;7.50;2.30;;;;;;;3.43;84.71;96450.75;5061547;28;20072;-78
2020/12/28 11:06:21;;;;;;;5.88;2.55;;;;;;;3.38;84.93;96442.44;5059259;28;20076;-79
2020/12/28 11:08:49;;;;;;;8.20;2.60;;;;;;;3.39;85.36;96444.09;5040919;28;20055;-76
2020/12/28 11:11:16;;;;;;;6.18;2.13;;;;;;;3.45;84.93;96447.97;5056421;28;20049;-79
2020/12/28 11:13:44;;;;;;;4.63;1.90;;;;;;;3.50;85.19;96440.47;5057604;28;20049;-78
2020/12/28 11:16:10;;;;;;;6.22;2.00;;;;;;;3.53;84.88;96433.13;5057854;28;20386;-76
2020/12/28 11:18:38;;;;;;;10.77;2.20;;;;;;;3.49;83.97;96436.19;5039726;28;20056;-75
2020/12/28 11:21:04;;;;;;;5.07;2.03;;;;;;;3.42;83.97;96417.44;5057432;28;20113;-78
2020/12/28 11:23:58;;;;;;;5.85;1.80;;;;;;;3.42;84.91;96427.19;5039932;28;20048;-80
2020/12/28 11:26:18;;;;;;;3.70;2.05;;;;;;;3.38;84.07;96411.63;5055737;28;20064;-78
2020/12/28 11:28:47;;;;;;;5.50;2.03;;;;;;;3.43;83.68;96399.84;5037573;28;20056;-77
2020/12/28 11:31:17;;;;;;;6.57;2.63;;;;;;;3.58;84.67;96422.13;5039354;28;20101;-80
2020/12/28 11:33:44;;;;;;;6.85;2.20;;;;;;;3.60;84.60;96414.91;5039708;28;20052;-78
2020/12/28 11:36:12;;;;;;;7.07;2.67;;;;;;;3.70;84.36;96427.25;5056387;28;20060;-78
2020/12/28 11:38:38;;;;;;;6.43;2.10;;;;;;;3.70;84.33;96411.44;5056702;28;20049;-78
2020/12/28 11:41:04;;;;;;;7.75;2.00;;;;;;;3.68;82.79;96403.66;5056838;28;20052;-79
2020/12/28 11:43:31;;;;;;;7.25;2.22;;;;;;;3.67;83.78;96408.09;5038623;28;20493;-76
2020/12/28 11:45:59;;;;;;;5.38;2.65;;;;;;;3.70;83.82;96392.97;5056783;28;20461;-77